Ukkonen Alkaa: 17-05-2021 08:00 Päättyy: 20:30 Varoitus: Ukkonen Taso: Keltainen info button
suomi:
Varoitus rajusta ukonilmasta: Aamupäivästä alkaen kehittyy ukkoskuuroja, joiden yhteydessä esiintyy voimakkaita ukkospuuskia, yli 15 m/s.

svenska:
Varning för våldsamt åskväder: Från och med förmiddagen utvecklas åskskurar med kraftiga åskbyar, över 15 m/s.

english:
Severe thunderstorm warning: Starting before noon severe thunderstorms can produce strong wind gusts, over 15 m/s. 


Webkamera Lisätietoa Webcam


Varoitus: Ukkonen Lisätietoa

blitzortung!


Yksityisiä sääasemia lähellä:

Sääasema Juupajoki

Sääasema Orivesi

Sääasema Muurame

Sääasema Jyväskylä

Sääasema Vihtavuori


Löydät sääaseman tiedot myös:

Finland Weather Exchange

European Weather Network

Weather Underground

AWEKAS

Windy.com



Säätiedot lähimmiltä METAR asemilta

   
EFHA - Halli (Fin-Afb), Finland
Etäisyys asemalta: Kaakko 25 km
Päivitetty: 17.05.2021 02:20
Selkeää  
Selkeää  
   Tuuli: Länsi 2.1 m/s
Tuuli: Länsi 2.1 m/s
Lämpötila: 7°C
Tuulen hyytävyys: 6°C
Kastepiste: 7°C
Kosteus: 100%
Ilmanpaine: 1008 hPa
Näkyvyys: Enemmän kuin 10 km
Pilvitiedot: Selkeää
EFHA 162320Z AUTO 26004KT CAVOK 07/07 Q1008
EFJY - Jyvaskyla (Mil/Civ), Finland
Etäisyys asemalta: Koillinen 75 km
Päivitetty: 17.05.2021 02:20
Sumua, Pilvistä  
Sumua, Pilvistä  
   Tuuli: Luode 1 m/s
Tuuli: Luode 1 m/s
Lämpötila: 8°C
Kastepiste: 8°C
Kosteus: 100%
Ilmanpaine: 1008 hPa
Pilvisyys: Pilvistä
Näkyvyys: 1 km
Pilvitiedot: Pilvistä 31 m
EFJY 162320Z AUTO 31002KT 0750 R30/1000D FG VV001 08/08 Q1008
EFTP - Tampere/Pirkkala, Finland
Etäisyys asemalta: Lounas 81 km
Päivitetty: 17.05.2021 02:20
Selkeää  
Selkeää  
   Tuuli: Vaihtelee 0.5 m/s
Tuuli: Vaihtelee 0.5 m/s
Lämpötila: 7°C
Kastepiste: 5°C
Kosteus: 87%
Ilmanpaine: 1009 hPa
Näkyvyys: Enemmän kuin 10 km
Pilvitiedot: Selkeää
EFTP 162320Z AUTO VRB01KT CAVOK 07/05 Q1009
EFSI - Seinajoki-Ilmajoki, Finland
Etäisyys asemalta: Luode 114 km
Päivitetty: 17.05.2021 02:20
Utua, Pilvistä  
Utua, Pilvistä  
   Tuuli: Länsi 1 m/s
Tuuli: Länsi 1 m/s
Pilvisyys: Pilvistä
Näkyvyys: 1 km
Pilvitiedot: Pilvistä 61 m
EFSI 162320Z AUTO 27002KT 1400 BR VV002 ///// Q////
EFMI - Mikkeli, Finland
Etäisyys asemalta: Itäkaakko 147 km
Päivitetty: 28.04.2021 15:50
Ei ajankohtaista tietoa saatavilla
Selkeää  
Selkeää  
   Tuuli: Länsi 4.1 m/s
Tuuli: Länsi 4.1 m/s
Lämpötila: 5°C
Tuulen hyytävyys: 2°C
Kastepiste: -7°C
Kosteus: 42%
Ilmanpaine: 1011 hPa
Näkyvyys: Enemmän kuin 10 km
Pilvitiedot: Selkeää
EFMI 281250Z AUTO 27008KT 250V060 CAVOK 05/M07 Q1011
EFPO - Pori (Mil/Civ), Finland
Etäisyys asemalta: Länsilounas 154 km
Päivitetty: 17.05.2021 02:20
Pilvistä  
Pilvistä  
   Tuuli: Koillinen 1.5 m/s
Tuuli: Koillinen 1.5 m/s
Lämpötila: 8°C
Tuulen hyytävyys: 7°C
Kastepiste: 7°C
Kosteus: 93%
Ilmanpaine: 1009 hPa
Pilvisyys: Pilvistä
Näkyvyys: Enemmän kuin 10 km
Pilvitiedot: Pilvistä 122 m
EFPO 162320Z AUTO 04003KT 010V080 9999 OVC004 08/07 Q1009
EFUT - Utti (Fin-Afb), Finland
Etäisyys asemalta: Kaakko 180 km
Päivitetty: 17.05.2021 02:20
Selkeää  
Selkeää  
   Tuuli: Eteläkaakko 2.1 m/s
Tuuli: Eteläkaakko 2.1 m/s
Lämpötila: 8°C
Tuulen hyytävyys: 7°C
Kastepiste: 5°C
Kosteus: 82%
Ilmanpaine: 1010 hPa
Näkyvyys: Enemmän kuin 10 km
Pilvitiedot: Selkeää
EFUT 162320Z AUTO 15004KT CAVOK 08/05 Q1010
EFVA - Vaasa, Finland
Etäisyys asemalta: Luode 180 km
Päivitetty: 17.05.2021 02:20
Pilvistä  
Pilvistä  
   Tuuli: Vaihtelee 1 m/s
Tuuli: Vaihtelee 1 m/s
Lämpötila: 7°C
Kastepiste: 6°C
Kosteus: 93%
Ilmanpaine: 1009 hPa
Pilvisyys: Pilvistä
Näkyvyys: Enemmän kuin 10 km
Pilvitiedot: Melkein pilvistä 213 m,
Pilvistä 762 m
EFVA 162320Z AUTO VRB02KT 9999 BKN007 OVC025 07/06 Q1009
EFHK - Helsinki/Vantaa, Finland
Etäisyys asemalta: Etelä 191 km
Päivitetty: 17.05.2021 02:20
Selkeää  
Selkeää  
   Tuuli: Pohjoiskoillinen 1.5 m/s
Tuuli: Pohjoiskoillinen 1.5 m/s
Lämpötila: 6°C
Tuulen hyytävyys: 5°C
Kastepiste: 5°C
Kosteus: 93%
Ilmanpaine: 1009 hPa
Näkyvyys: Enemmän kuin 10 km
Pilvitiedot: Selkeää
EFHK 162320Z 03003KT CAVOK 06/05 Q1009 NOSIG

Alkuperäinen skripti  Saratoga-weather.org Sovitettu myös templatelle  Weerstation Leuven

Laitteet joita käytämme:

Sääasema
Davis VP2

Sääasemaohjelma
Cumulus

Sääaseman palvelin
HP ProBook 6460b

Palveluntarjoaja
Radicenter

Davis VP2

Cumulus

HP ProBook 6460b

Radicenter




Flag Counter Cumulus Top Weather Sites